Time;durP1;ratioP1;P1;durP2;ratioP2;P2;SDS_P1;SDS_P2;PMS_P1;PMS_P2;Temp;Humidity;BMP_temperature;BMP_pressure;BME280_temperature;BME280_humidity;BME280_pressure;Samples;Min_cycle;Max_cycle;Signal;HPM_P1;HPM_P2
2023/06/30 00:00:34;;;;;;;12.45;7.07;;;;;;;;;;5077893;28;20055;-51
2023/06/30 00:03:00;;;;;;;8.50;6.80;;;;;;;;;;5094171;27;20033;-51
2023/06/30 00:05:27;;;;;;;10.65;7.07;;;;;;;;;;5093707;27;20048;-51
2023/06/30 00:07:58;;;;;;;14.95;8.02;;;;;;;;;;5078238;28;20122;-51
2023/06/30 00:10:24;;;;;;;12.07;7.03;;;;;;;;;;5078024;28;21101;-51
2023/06/30 00:12:50;;;;;;;9.65;7.15;;;;;;;;;;5079101;28;20597;-51
2023/06/30 00:15:16;;;;;;;9.93;7.60;;;;;;;;;;5078485;28;20072;-51
2023/06/30 00:17:42;;;;;;;9.60;7.13;;;;;;;;;;5075583;28;20041;-51
2023/06/30 00:20:09;;;;;;;9.80;6.57;;;;;;;;;;5077842;28;20072;-51
2023/06/30 00:22:35;;;;;;;9.73;7.63;;;;;;;;;;5077358;28;20036;-51
2023/06/30 00:25:02;;;;;;;10.20;7.18;;;;;;;;;;5077420;28;20079;-51
2023/06/30 00:27:28;;;;;;;12.20;8.23;;;;;;;;;;5078473;28;20986;-51
2023/06/30 00:29:54;;;;;;;10.13;6.95;;;;;;;;;;5079030;28;20056;-51
2023/06/30 00:32:20;;;;;;;12.90;8.57;;;;;;;;;;5092987;27;20033;-51
2023/06/30 00:34:46;;;;;;;9.13;7.32;;;;;;;;;;5078061;28;20044;-51
2023/06/30 00:37:12;;;;;;;11.60;7.00;;;;;;;;;;5077645;28;21390;-51
2023/06/30 00:39:38;;;;;;;11.55;7.18;;;;;;;;;;5075808;28;20163;-51
2023/06/30 00:42:05;;;;;;;11.48;8.32;;;;;;;;;;5078116;28;20064;-51
2023/06/30 00:44:31;;;;;;;9.35;7.65;;;;;;;;;;5078330;28;20072;-51
2023/06/30 00:47:00;;;;;;;11.15;7.38;;;;;;;;;;5078223;28;20637;-51
2023/06/30 00:49:26;;;;;;;11.85;7.22;;;;;;;;;;5091626;27;20040;-51
2023/06/30 00:51:53;;;;;;;13.48;7.72;;;;;;;;;;5077782;28;20041;-51
2023/06/30 00:54:19;;;;;;;11.07;8.18;;;;;;;;;;5077697;28;20128;-51
2023/06/30 00:56:45;;;;;;;10.32;7.72;;;;;;;;;;5076687;27;20064;-51
2023/06/30 00:59:11;;;;;;;12.85;7.68;;;;;;;;;;5092701;27;20049;-51
2023/06/30 01:01:39;;;;;;;14.27;7.05;;;;;;;;;;5068971;28;20052;-51
2023/06/30 01:04:24;;;;;;;10.32;6.97;;;;;;;;;;5078012;28;20562;-51
2023/06/30 01:06:56;;;;;;;14.43;9.02;;;;;;;;;;5077365;28;21331;-51
2023/06/30 01:09:24;;;;;;;12.13;7.80;;;;;;;;;;5076886;28;20045;-51
2023/06/30 01:11:51;;;;;;;10.30;6.95;;;;;;;;;;5076930;28;20097;-52
2023/06/30 01:14:18;;;;;;;10.95;7.93;;;;;;;;;;5074311;28;20971;-51
2023/06/30 01:16:44;;;;;;;9.80;7.13;;;;;;;;;;5076997;28;20040;-51
2023/06/30 01:19:36;;;;;;;11.48;8.43;;;;;;;;;;5075625;28;20045;-51
2023/06/30 01:22:13;;;;;;;11.73;6.65;;;;;;;;;;5075166;28;20831;-51
2023/06/30 01:24:40;;;;;;;9.20;6.20;;;;;;;;;;5076572;28;20856;-51
2023/06/30 01:27:06;;;;;;;11.27;7.15;;;;;;;;;;5076379;28;20625;-51
2023/06/30 01:29:32;;;;;;;8.82;5.82;;;;;;;;;;5068419;28;20049;-51
2023/06/30 01:31:59;;;;;;;11.73;6.90;;;;;;;;;;5076712;28;20126;-51
2023/06/30 01:34:25;;;;;;;11.55;6.75;;;;;;;;;;5077170;28;20053;-51
2023/06/30 01:36:51;;;;;;;9.10;6.80;;;;;;;;;;5076164;28;20044;-51
2023/06/30 01:39:17;;;;;;;12.82;8.00;;;;;;;;;;5075723;28;20311;-51
2023/06/30 01:41:44;;;;;;;9.63;7.32;;;;;;;;;;5067836;28;20072;-51
2023/06/30 01:44:11;;;;;;;11.25;5.50;;;;;;;;;;5076671;28;20076;-50
2023/06/30 01:46:37;;;;;;;9.00;5.93;;;;;;;;;;5077326;28;20415;-50
2023/06/30 01:49:03;;;;;;;8.60;5.93;;;;;;;;;;5076876;28;20048;-51
2023/06/30 01:51:29;;;;;;;9.40;5.88;;;;;;;;;;5076299;28;20051;-51
2023/06/30 01:53:55;;;;;;;11.10;6.05;;;;;;;;;;5077414;28;20063;-51
2023/06/30 01:56:21;;;;;;;9.90;6.57;;;;;;;;;;5076721;28;20107;-51
2023/06/30 01:58:47;;;;;;;11.00;7.15;;;;;;;;;;5077036;28;20045;-51
2023/06/30 02:01:13;;;;;;;10.63;6.68;;;;;;;;;;5076613;28;20036;-51
2023/06/30 02:03:39;;;;;;;12.05;7.13;;;;;;;;;;5077351;28;20557;-51
2023/06/30 02:06:06;;;;;;;8.85;6.60;;;;;;;;;;5076863;28;20524;-51
2023/06/30 02:08:32;;;;;;;11.65;7.53;;;;;;;;;;5077179;28;20036;-51
2023/06/30 02:10:58;;;;;;;9.32;4.90;;;;;;;;;;5076942;28;20044;-51
2023/06/30 02:13:24;;;;;;;11.40;7.75;;;;;;;;;;5077359;28;20044;-51
2023/06/30 02:15:50;;;;;;;13.95;8.27;;;;;;;;;;5078168;27;20032;-51
2023/06/30 02:18:16;;;;;;;14.00;8.63;;;;;;;;;;5079330;28;20041;-51
2023/06/30 02:20:42;;;;;;;11.27;7.85;;;;;;;;;;5079430;28;20048;-51
2023/06/30 02:23:08;;;;;;;18.50;10.38;;;;;;;;;;5080447;28;20072;-51
2023/06/30 02:25:34;;;;;;;13.52;9.13;;;;;;;;;;5079405;28;20080;-51
2023/06/30 02:28:00;;;;;;;14.63;10.30;;;;;;;;;;5079802;28;20044;-51
2023/06/30 02:30:26;;;;;;;15.43;10.30;;;;;;;;;;5080092;28;20040;-51
2023/06/30 02:32:53;;;;;;;22.13;10.93;;;;;;;;;;5080185;28;20440;-51
2023/06/30 02:35:19;;;;;;;17.83;11.52;;;;;;;;;;5079812;28;20056;-51
2023/06/30 02:37:45;;;;;;;13.68;8.43;;;;;;;;;;5079358;27;20160;-51
2023/06/30 02:40:11;;;;;;;18.17;11.82;;;;;;;;;;5079038;28;20431;-51
2023/06/30 02:42:37;;;;;;;18.40;10.50;;;;;;;;;;5079440;28;20055;-51
2023/06/30 02:45:04;;;;;;;15.32;10.05;;;;;;;;;;5079454;28;20136;-51
2023/06/30 02:47:30;;;;;;;14.75;10.18;;;;;;;;;;5078934;28;20044;-51
2023/06/30 02:49:56;;;;;;;15.00;9.30;;;;;;;;;;5079259;28;20099;-51
2023/06/30 02:52:22;;;;;;;14.00;8.45;;;;;;;;;;5079039;28;20226;-52
2023/06/30 02:54:48;;;;;;;18.00;10.00;;;;;;;;;;5079188;28;20635;-51
2023/06/30 02:57:14;;;;;;;17.95;9.15;;;;;;;;;;5078343;27;20040;-51
2023/06/30 02:59:40;;;;;;;9.48;6.90;;;;;;;;;;5079668;28;20452;-51
2023/06/30 03:02:06;;;;;;;12.68;7.90;;;;;;;;;;5079490;28;20048;-51
2023/06/30 03:04:32;;;;;;;13.50;9.10;;;;;;;;;;5079477;28;20036;-51
2023/06/30 03:06:58;;;;;;;12.15;7.95;;;;;;;;;;5078758;28;20051;-51
2023/06/30 03:09:24;;;;;;;9.60;6.28;;;;;;;;;;5079778;28;20044;-51
2023/06/30 03:11:50;;;;;;;8.50;6.05;;;;;;;;;;5078753;28;20119;-51
2023/06/30 03:14:16;;;;;;;11.88;5.80;;;;;;;;;;5079567;28;20072;-51
2023/06/30 03:16:42;;;;;;;12.45;6.00;;;;;;;;;;5078584;28;20053;-51
2023/06/30 03:19:08;;;;;;;8.90;5.15;;;;;;;;;;5079129;28;20090;-52
2023/06/30 03:21:34;;;;;;;9.52;6.72;;;;;;;;;;5078979;28;20041;-51
2023/06/30 03:24:01;;;;;;;8.48;5.82;;;;;;;;;;5079143;28;20060;-51
2023/06/30 03:26:28;;;;;;;11.07;6.15;;;;;;;;;;5077695;28;20045;-51
2023/06/30 03:28:54;;;;;;;9.35;4.65;;;;;;;;;;5077785;28;20050;-50
2023/06/30 03:31:20;;;;;;;12.75;6.15;;;;;;;;;;5078784;28;20040;-51
2023/06/30 03:33:46;;;;;;;7.93;5.25;;;;;;;;;;5078845;28;20041;-51
2023/06/30 03:36:12;;;;;;;9.98;5.15;;;;;;;;;;5078771;28;20048;-50
2023/06/30 03:38:38;;;;;;;8.38;4.07;;;;;;;;;;5078633;28;20036;-51
2023/06/30 03:41:05;;;;;;;9.23;4.80;;;;;;;;;;5078452;28;20125;-51
2023/06/30 03:43:32;;;;;;;8.77;4.65;;;;;;;;;;5079179;28;20044;-52
2023/06/30 03:45:58;;;;;;;11.77;4.75;;;;;;;;;;5070166;28;20110;-51
2023/06/30 03:48:25;;;;;;;6.47;5.07;;;;;;;;;;5079320;28;20059;-51
2023/06/30 03:50:54;;;;;;;6.68;5.13;;;;;;;;;;5078484;28;20561;-51
2023/06/30 03:53:21;;;;;;;9.73;5.03;;;;;;;;;;5079225;28;20032;-51
2023/06/30 03:55:47;;;;;;;8.35;3.80;;;;;;;;;;5077772;28;20223;-51
2023/06/30 03:58:13;;;;;;;6.13;3.58;;;;;;;;;;5077859;28;20519;-51
2023/06/30 04:00:39;;;;;;;7.60;4.25;;;;;;;;;;5078505;28;20866;-50
2023/06/30 04:03:05;;;;;;;8.45;3.72;;;;;;;;;;5078448;27;20045;-51
2023/06/30 04:05:31;;;;;;;7.43;4.60;;;;;;;;;;5077394;28;20167;-51
2023/06/30 04:07:57;;;;;;;8.82;3.85;;;;;;;;;;5078244;28;20071;-51
2023/06/30 04:10:23;;;;;;;9.75;3.33;;;;;;;;;;5078589;28;20056;-51
2023/06/30 04:12:50;;;;;;;6.32;3.58;;;;;;;;;;5093662;27;20563;-51
2023/06/30 04:15:16;;;;;;;4.57;2.63;;;;;;;;;;5077891;28;20053;-52
2023/06/30 04:17:42;;;;;;;6.63;3.20;;;;;;;;;;5078022;28;20503;-51
2023/06/30 04:20:09;;;;;;;5.70;2.45;;;;;;;;;;5077990;28;20048;-51
2023/06/30 04:22:38;;;;;;;7.45;3.08;;;;;;;;;;5077836;28;20231;-51
2023/06/30 04:25:07;;;;;;;5.57;2.63;;;;;;;;;;5077274;28;20615;-51
2023/06/30 04:27:34;;;;;;;5.15;2.83;;;;;;;;;;5078068;28;20569;-51
2023/06/30 04:30:00;;;;;;;4.05;2.50;;;;;;;;;;5077875;28;20115;-51
2023/06/30 04:32:26;;;;;;;5.20;2.90;;;;;;;;;;5078600;28;20135;-51
2023/06/30 04:34:52;;;;;;;6.22;2.58;;;;;;;;;;5077723;28;20479;-51
2023/06/30 04:37:19;;;;;;;5.68;3.08;;;;;;;;;;5077630;28;20107;-51
2023/06/30 04:39:47;;;;;;;6.55;2.88;;;;;;;;;;5077667;28;20036;-51
2023/06/30 04:42:14;;;;;;;3.55;2.15;;;;;;;;;;5077627;28;20417;-51
2023/06/30 04:44:40;;;;;;;10.05;3.08;;;;;;;;;;5077352;28;20087;-51
2023/06/30 04:47:06;;;;;;;9.80;4.07;;;;;;;;;;5077153;28;20646;-51
2023/06/30 04:49:32;;;;;;;7.07;3.38;;;;;;;;;;5078038;28;20626;-51
2023/06/30 04:51:58;;;;;;;7.95;2.92;;;;;;;;;;5078397;28;20067;-51
2023/06/30 04:54:25;;;;;;;9.80;3.28;;;;;;;;;;5077527;28;20048;-51
2023/06/30 04:56:51;;;;;;;7.35;2.83;;;;;;;;;;5077570;28;20080;-52
2023/06/30 04:59:17;;;;;;;8.00;3.05;;;;;;;;;;5076269;28;20345;-51
2023/06/30 05:01:43;;;;;;;11.15;4.25;;;;;;;;;;5077401;28;20884;-51
2023/06/30 05:04:09;;;;;;;5.40;2.65;;;;;;;;;;5076522;28;20512;-52
2023/06/30 05:06:35;;;;;;;5.18;2.95;;;;;;;;;;5077956;27;20103;-51
2023/06/30 05:09:01;;;;;;;8.63;2.80;;;;;;;;;;5077009;28;20198;-51
2023/06/30 05:11:27;;;;;;;5.38;2.90;;;;;;;;;;5093726;27;20528;-51
2023/06/30 05:13:53;;;;;;;5.40;2.22;;;;;;;;;;5077287;28;20076;-51
2023/06/30 05:16:19;;;;;;;5.18;2.50;;;;;;;;;;5093070;27;20064;-51
2023/06/30 05:18:45;;;;;;;6.05;2.20;;;;;;;;;;5077925;28;20072;-51
2023/06/30 05:21:11;;;;;;;5.22;2.55;;;;;;;;;;5077231;28;20048;-51
2023/06/30 05:23:37;;;;;;;4.18;1.88;;;;;;;;;;5077092;28;20348;-50
2023/06/30 05:26:03;;;;;;;2.78;1.98;;;;;;;;;;5077394;28;20041;-51
2023/06/30 05:28:29;;;;;;;5.20;2.10;;;;;;;;;;5077073;28;20512;-51
2023/06/30 05:30:55;;;;;;;9.52;3.28;;;;;;;;;;5077539;28;20133;-51
2023/06/30 05:33:21;;;;;;;4.00;2.30;;;;;;;;;;5077148;28;20040;-50
2023/06/30 05:35:47;;;;;;;9.32;2.83;;;;;;;;;;5076477;28;20044;-51
2023/06/30 05:38:14;;;;;;;3.17;1.70;;;;;;;;;;5076163;28;20043;-51
2023/06/30 05:40:40;;;;;;;5.60;2.30;;;;;;;;;;5076607;28;20072;-51
2023/06/30 05:43:06;;;;;;;4.90;2.17;;;;;;;;;;5076762;28;20106;-51
2023/06/30 05:45:32;;;;;;;3.83;2.03;;;;;;;;;;5069418;28;20466;-51
2023/06/30 05:47:58;;;;;;;3.90;1.90;;;;;;;;;;5076297;28;20039;-51
2023/06/30 05:50:25;;;;;;;5.20;2.13;;;;;;;;;;5076509;28;20056;-51
2023/06/30 05:52:51;;;;;;;6.95;2.72;;;;;;;;;;5076214;28;20532;-51
2023/06/30 05:55:17;;;;;;;7.45;2.13;;;;;;;;;;5077032;28;20160;-51
2023/06/30 05:57:43;;;;;;;4.85;2.10;;;;;;;;;;5076428;28;20079;-51
2023/06/30 06:00:10;;;;;;;8.88;2.97;;;;;;;;;;5077206;28;20037;-51
2023/06/30 06:02:36;;;;;;;7.70;2.78;;;;;;;;;;5076179;28;20049;-51
2023/06/30 06:05:03;;;;;;;5.85;2.30;;;;;;;;;;5077543;28;20041;-51
2023/06/30 06:07:29;;;;;;;6.40;2.65;;;;;;;;;;5076450;28;20047;-51
2023/06/30 06:09:55;;;;;;;4.25;2.08;;;;;;;;;;5076557;28;20044;-50
2023/06/30 06:12:21;;;;;;;5.53;2.08;;;;;;;;;;5074835;28;20048;-51
2023/06/30 06:14:47;;;;;;;8.52;2.55;;;;;;;;;;5076124;28;20613;-51
2023/06/30 06:17:14;;;;;;;7.22;2.10;;;;;;;;;;5075959;27;20032;-51
2023/06/30 06:19:40;;;;;;;4.80;2.13;;;;;;;;;;5076386;28;20484;-51
2023/06/30 06:22:06;;;;;;;6.10;2.00;;;;;;;;;;5075679;28;20506;-51
2023/06/30 06:24:32;;;;;;;6.50;2.17;;;;;;;;;;5076334;28;20060;-51
2023/06/30 06:26:58;;;;;;;6.50;2.85;;;;;;;;;;5076620;28;20040;-51
2023/06/30 06:29:24;;;;;;;4.70;2.15;;;;;;;;;;5076464;28;20040;-51
2023/06/30 06:31:51;;;;;;;4.25;2.63;;;;;;;;;;5076285;27;20075;-50
2023/06/30 06:34:21;;;;;;;10.00;2.40;;;;;;;;;;5075600;28;20040;-51
2023/06/30 06:36:49;;;;;;;3.55;1.55;;;;;;;;;;5076024;28;20048;-51
2023/06/30 06:39:15;;;;;;;6.88;2.28;;;;;;;;;;5092614;27;20493;-50
2023/06/30 06:41:41;;;;;;;4.82;2.10;;;;;;;;;;5076459;28;20052;-51
2023/06/30 06:44:07;;;;;;;7.05;2.03;;;;;;;;;;5076928;28;20568;-51
2023/06/30 06:46:33;;;;;;;4.07;2.10;;;;;;;;;;5076400;28;20048;-50
2023/06/30 06:48:59;;;;;;;3.80;2.15;;;;;;;;;;5076681;28;20052;-51
2023/06/30 06:51:25;;;;;;;4.10;2.22;;;;;;;;;;5068852;28;20081;-51
2023/06/30 06:53:55;;;;;;;4.45;2.08;;;;;;;;;;5076521;28;20124;-51
2023/06/30 06:56:22;;;;;;;3.75;1.58;;;;;;;;;;5076217;28;20110;-51
2023/06/30 06:58:48;;;;;;;4.50;2.15;;;;;;;;;;5075920;28;20036;-51
2023/06/30 07:01:14;;;;;;;4.40;2.60;;;;;;;;;;5077366;28;20084;-51
2023/06/30 07:03:40;;;;;;;5.30;2.17;;;;;;;;;;5079023;28;20052;-51
2023/06/30 07:06:06;;;;;;;6.45;2.25;;;;;;;;;;5079864;28;20596;-51
2023/06/30 07:08:35;;;;;;;8.00;2.28;;;;;;;;;;5079641;28;20052;-51
2023/06/30 07:11:03;;;;;;;6.13;1.80;;;;;;;;;;5079670;27;20041;-51
2023/06/30 07:13:29;;;;;;;7.07;2.40;;;;;;;;;;5094911;27;20041;-51
2023/06/30 07:15:55;;;;;;;8.52;2.15;;;;;;;;;;5080642;28;20040;-51
2023/06/30 07:18:21;;;;;;;8.40;2.15;;;;;;;;;;5078786;28;20044;-51
2023/06/30 07:20:47;;;;;;;4.30;1.73;;;;;;;;;;5079546;28;20364;-51
2023/06/30 07:23:14;;;;;;;5.53;1.70;;;;;;;;;;5078601;28;20037;-51
2023/06/30 07:25:40;;;;;;;7.68;2.63;;;;;;;;;;5078552;28;20067;-51
2023/06/30 07:28:06;;;;;;;4.20;1.48;;;;;;;;;;5079347;28;20044;-51
2023/06/30 07:30:32;;;;;;;7.85;1.80;;;;;;;;;;5078584;28;20051;-51
2023/06/30 07:32:58;;;;;;;6.55;1.90;;;;;;;;;;5078645;28;20041;-51
2023/06/30 07:35:24;;;;;;;3.85;1.60;;;;;;;;;;5078942;28;20040;-51
2023/06/30 07:37:51;;;;;;;12.23;2.75;;;;;;;;;;5078951;28;20102;-51
2023/06/30 07:40:17;;;;;;;4.05;1.73;;;;;;;;;;5078649;28;20234;-51
2023/06/30 07:42:44;;;;;;;6.45;1.50;;;;;;;;;;5078578;28;20072;-51
2023/06/30 07:45:11;;;;;;;3.88;1.80;;;;;;;;;;5079357;28;20044;-51
2023/06/30 07:47:39;;;;;;;5.78;1.88;;;;;;;;;;5078055;28;20044;-51
2023/06/30 07:50:11;;;;;;;4.85;1.73;;;;;;;;;;5078774;28;20047;-50
2023/06/30 07:52:37;;;;;;;3.70;1.48;;;;;;;;;;5093498;27;20041;-51
2023/06/30 07:55:05;;;;;;;6.80;1.90;;;;;;;;;;5078820;27;20052;-51
2023/06/30 07:57:31;;;;;;;2.25;1.60;;;;;;;;;;5094130;27;20076;-51
2023/06/30 07:59:57;;;;;;;7.43;1.67;;;;;;;;;;5078495;28;20045;-52
2023/06/30 08:02:23;;;;;;;2.00;1.38;;;;;;;;;;5078533;28;20803;-51
2023/06/30 08:04:50;;;;;;;4.28;1.60;;;;;;;;;;5078510;28;20178;-51
2023/06/30 08:07:16;;;;;;;5.45;1.63;;;;;;;;;;5078175;28;20049;-51
2023/06/30 08:09:42;;;;;;;3.03;1.58;;;;;;;;;;5077907;28;20552;-51
2023/06/30 08:12:09;;;;;;;1.98;1.00;;;;;;;;;;5077428;28;20075;-51
2023/06/30 08:14:35;;;;;;;3.58;1.50;;;;;;;;;;5077603;28;20068;-51
2023/06/30 08:17:02;;;;;;;3.38;1.25;;;;;;;;;;5078112;28;20102;-51
2023/06/30 08:19:28;;;;;;;2.55;1.42;;;;;;;;;;5078204;27;20049;-51
2023/06/30 08:21:54;;;;;;;8.50;1.50;;;;;;;;;;5077337;28;20757;-51
2023/06/30 08:24:20;;;;;;;7.28;1.20;;;;;;;;;;5093663;27;20532;-51
2023/06/30 08:26:46;;;;;;;4.00;1.40;;;;;;;;;;5078064;28;20534;-51
2023/06/30 08:29:13;;;;;;;3.47;1.05;;;;;;;;;;5078580;28;20045;-51
2023/06/30 08:31:40;;;;;;;2.88;1.17;;;;;;;;;;5077708;28;20045;-51
2023/06/30 08:34:08;;;;;;;4.40;1.50;;;;;;;;;;5078258;28;20604;-50
2023/06/30 08:36:34;;;;;;;4.65;1.38;;;;;;;;;;5078372;28;20573;-51
2023/06/30 08:39:00;;;;;;;4.43;1.63;;;;;;;;;;5093315;27;20717;-51
2023/06/30 08:41:28;;;;;;;3.70;1.85;;;;;;;;;;5077739;28;20033;-51
2023/06/30 08:43:56;;;;;;;2.15;1.45;;;;;;;;;;5078054;28;20102;-51
2023/06/30 08:46:23;;;;;;;1.65;1.08;;;;;;;;;;5077142;28;20040;-51
2023/06/30 08:48:50;;;;;;;4.22;1.90;;;;;;;;;;5076908;28;20102;-51
2023/06/30 08:51:16;;;;;;;5.78;1.83;;;;;;;;;;5076541;28;20048;-51
2023/06/30 08:53:42;;;;;;;7.38;2.13;;;;;;;;;;5078303;28;20036;-51
2023/06/30 08:56:08;;;;;;;4.75;1.50;;;;;;;;;;5077298;28;20090;-51
2023/06/30 08:58:35;;;;;;;1.88;1.10;;;;;;;;;;5078029;28;20562;-51
2023/06/30 09:01:01;;;;;;;3.50;2.25;;;;;;;;;;5076912;28;20045;-51
2023/06/30 09:03:28;;;;;;;3.95;1.70;;;;;;;;;;5077721;28;20051;-51
2023/06/30 09:05:55;;;;;;;7.20;1.60;;;;;;;;;;5077025;28;20198;-51
2023/06/30 09:08:27;;;;;;;3.03;1.63;;;;;;;;;;5077538;28;20048;-51
2023/06/30 09:10:54;;;;;;;2.90;1.27;;;;;;;;;;5077525;28;20048;-51
2023/06/30 09:13:22;;;;;;;2.38;1.42;;;;;;;;;;5076840;28;20095;-51
2023/06/30 09:15:48;;;;;;;8.50;2.00;;;;;;;;;;5076939;28;21309;-51
2023/06/30 09:18:14;;;;;;;3.28;1.25;;;;;;;;;;5077345;28;20049;-51
2023/06/30 09:20:41;;;;;;;2.55;1.23;;;;;;;;;;5076530;28;20040;-51
2023/06/30 09:23:07;;;;;;;4.28;1.52;;;;;;;;;;5091599;27;20037;-51
2023/06/30 09:25:34;;;;;;;4.60;1.70;;;;;;;;;;5074744;28;20586;-51
2023/06/30 09:28:00;;;;;;;2.70;1.08;;;;;;;;;;5076780;28;20040;-51
2023/06/30 09:30:32;;;;;;;3.78;1.75;;;;;;;;;;5076996;28;20119;-51
2023/06/30 09:32:59;;;;;;;2.00;1.33;;;;;;;;;;5092959;27;20040;-51
2023/06/30 09:35:25;;;;;;;4.75;1.42;;;;;;;;;;5077117;28;20047;-51
2023/06/30 09:37:53;;;;;;;3.95;1.60;;;;;;;;;;5077257;28;20101;-50
2023/06/30 09:40:25;;;;;;;2.42;1.05;;;;;;;;;;5076802;28;20048;-51
2023/06/30 09:42:54;;;;;;;3.47;2.17;;;;;;;;;;5076258;28;20049;-51
2023/06/30 09:45:20;;;;;;;1.90;1.20;;;;;;;;;;5077653;28;20039;-51
2023/06/30 09:47:53;;;;;;;3.80;1.30;;;;;;;;;;5077326;28;20047;-51
2023/06/30 09:50:26;;;;;;;5.63;1.83;;;;;;;;;;5077678;28;20068;-51
2023/06/30 09:52:52;;;;;;;3.13;1.40;;;;;;;;;;5076930;28;20183;-51
2023/06/30 09:55:18;;;;;;;2.00;1.00;;;;;;;;;;5077954;28;20136;-51
2023/06/30 09:57:46;;;;;;;2.90;1.10;;;;;;;;;;5092218;27;20532;-51
2023/06/30 10:00:13;;;;;;;1.80;0.93;;;;;;;;;;5091832;27;20601;-51
2023/06/30 10:02:40;;;;;;;2.10;1.00;;;;;;;;;;5076382;28;20036;-51
2023/06/30 10:05:06;;;;;;;2.88;1.10;;;;;;;;;;5077573;28;20402;-51
2023/06/30 10:07:32;;;;;;;1.10;0.70;;;;;;;;;;5076942;28;21232;-51
2023/06/30 10:09:59;;;;;;;2.78;1.38;;;;;;;;;;5077358;28;20064;-51
2023/06/30 10:12:26;;;;;;;3.50;1.10;;;;;;;;;;5077027;28;20066;-51
2023/06/30 10:14:53;;;;;;;1.92;1.15;;;;;;;;;;5076519;28;20041;-51
2023/06/30 10:17:19;;;;;;;3.38;1.10;;;;;;;;;;5077402;28;20041;-50
2023/06/30 10:19:46;;;;;;;1.08;0.90;;;;;;;;;;5076749;28;20071;-51
2023/06/30 10:22:12;;;;;;;3.55;1.27;;;;;;;;;;5077414;28;20578;-51
2023/06/30 10:24:41;;;;;;;1.95;1.20;;;;;;;;;;5077055;28;20053;-51
2023/06/30 10:27:08;;;;;;;3.47;1.20;;;;;;;;;;5076570;28;20048;-52
2023/06/30 10:29:34;;;;;;;2.35;1.13;;;;;;;;;;5076386;28;20040;-51
2023/06/30 10:32:01;;;;;;;1.77;1.52;;;;;;;;;;5076227;28;20120;-51
2023/06/30 10:34:28;;;;;;;2.55;1.20;;;;;;;;;;5075851;28;20150;-51
2023/06/30 10:36:54;;;;;;;2.03;1.13;;;;;;;;;;5078547;28;20119;-51
2023/06/30 10:39:21;;;;;;;2.25;1.00;;;;;;;;;;5079593;28;20040;-51
2023/06/30 10:41:48;;;;;;;3.22;1.00;;;;;;;;;;5080048;28;20759;-51
2023/06/30 10:44:14;;;;;;;1.98;0.90;;;;;;;;;;5079446;28;20044;-51
2023/06/30 10:47:00;;;;;;;1.80;1.42;;;;;;;;;;5080073;28;20428;-51
2023/06/30 10:49:26;;;;;;;3.38;1.70;;;;;;;;;;5078186;28;20055;-52
2023/06/30 10:51:52;;;;;;;3.10;1.52;;;;;;;;;;5080111;28;20044;-51
2023/06/30 10:54:29;;;;;;;3.85;1.27;;;;;;;;;;5078835;28;20135;-51
2023/06/30 10:57:11;;;;;;;5.53;1.50;;;;;;;;;;5080501;28;20056;-51
2023/06/30 10:59:40;;;;;;;2.60;0.80;;;;;;;;;;5079568;28;20535;-51
2023/06/30 11:02:18;;;;;;;2.78;1.35;;;;;;;;;;5078535;28;20036;-51
2023/06/30 11:04:45;;;;;;;3.28;1.25;;;;;;;;;;5079954;28;20033;-51
2023/06/30 11:07:16;;;;;;;1.10;0.85;;;;;;;;;;5078400;28;20044;-51
2023/06/30 11:09:46;;;;;;;2.33;1.60;;;;;;;;;;5079423;28;20170;-52
2023/06/30 11:12:14;;;;;;;4.25;1.70;;;;;;;;;;5078675;28;20485;-51
2023/06/30 11:14:50;;;;;;;2.78;1.30;;;;;;;;;;5078947;28;20041;-52
2023/06/30 11:17:16;;;;;;;3.20;1.20;;;;;;;;;;5078643;28;20048;-52
2023/06/30 11:19:55;;;;;;;4.90;1.25;;;;;;;;;;5094632;27;20532;-51
2023/06/30 11:22:22;;;;;;;2.08;1.27;;;;;;;;;;5078806;28;20043;-51
2023/06/30 11:24:48;;;;;;;2.03;1.10;;;;;;;;;;5078714;28;20052;-52
2023/06/30 11:27:15;;;;;;;3.55;0.90;;;;;;;;;;5078615;28;20045;-51
2023/06/30 11:29:41;;;;;;;10.25;1.20;;;;;;;;;;5078460;28;20032;-51
2023/06/30 11:32:08;;;;;;;2.38;1.15;;;;;;;;;;5078808;28;20094;-51
2023/06/30 11:34:34;;;;;;;2.88;1.27;;;;;;;;;;5078959;28;20100;-51
2023/06/30 11:37:06;;;;;;;2.38;1.00;;;;;;;;;;5078882;28;20042;-51
2023/06/30 11:39:35;;;;;;;5.93;1.15;;;;;;;;;;5078696;28;20091;-51
2023/06/30 11:42:01;;;;;;;4.18;1.33;;;;;;;;;;5079314;28;20052;-51
2023/06/30 11:44:27;;;;;;;3.20;1.40;;;;;;;;;;5078572;28;20090;-52
2023/06/30 11:46:55;;;;;;;3.50;1.30;;;;;;;;;;5079179;28;20574;-51
2023/06/30 11:49:21;;;;;;;5.25;1.27;;;;;;;;;;5078123;28;20969;-51
2023/06/30 11:51:47;;;;;;;3.30;1.27;;;;;;;;;;5079515;28;20045;-51
2023/06/30 11:54:14;;;;;;;5.15;2.08;;;;;;;;;;5078379;28;20044;-51
2023/06/30 11:56:40;;;;;;;4.43;1.20;;;;;;;;;;5079574;28;20093;-52
2023/06/30 11:59:07;;;;;;;3.17;1.50;;;;;;;;;;5078818;27;20540;-51
2023/06/30 12:01:33;;;;;;;1.95;1.13;;;;;;;;;;5078836;27;20068;-51
2023/06/30 12:03:59;;;;;;;5.28;1.67;;;;;;;;;;5094113;27;20698;-51
2023/06/30 12:06:28;;;;;;;5.68;1.98;;;;;;;;;;5078216;28;20041;-51
2023/06/30 12:08:54;;;;;;;2.17;1.27;;;;;;;;;;5093554;27;20115;-52
2023/06/30 12:11:20;;;;;;;4.53;1.15;;;;;;;;;;5078730;28;20597;-51
2023/06/30 12:13:47;;;;;;;1.75;0.90;;;;;;;;;;5078411;28;20132;-52
2023/06/30 12:16:13;;;;;;;4.30;1.67;;;;;;;;;;5078628;28;20626;-51
2023/06/30 12:18:43;;;;;;;2.72;1.27;;;;;;;;;;5078529;28;20044;-51
2023/06/30 12:21:10;;;;;;;4.45;2.08;;;;;;;;;;5077267;28;20116;-51
2023/06/30 12:23:41;;;;;;;2.10;1.00;;;;;;;;;;5078231;28;20057;-52
2023/06/30 12:26:07;;;;;;;4.15;1.10;;;;;;;;;;5077477;28;20130;-51
2023/06/30 12:28:33;;;;;;;2.78;1.00;;;;;;;;;;5078078;28;20528;-51
2023/06/30 12:30:59;;;;;;;1.75;1.27;;;;;;;;;;5078328;28;20048;-51
2023/06/30 12:33:25;;;;;;;3.70;1.00;;;;;;;;;;5078360;28;20044;-51
2023/06/30 12:35:51;;;;;;;5.57;1.17;;;;;;;;;;5077415;28;20045;-51
2023/06/30 12:38:18;;;;;;;3.30;0.98;;;;;;;;;;5077545;28;20491;-51
2023/06/30 12:40:44;;;;;;;2.53;1.35;;;;;;;;;;5078552;28;20044;-51
2023/06/30 12:43:10;;;;;;;2.83;1.40;;;;;;;;;;5076870;28;20163;-51
2023/06/30 12:45:36;;;;;;;4.60;2.28;;;;;;;;;;5077563;28;20135;-51
2023/06/30 12:48:03;;;;;;;2.90;1.38;;;;;;;;;;5077239;28;20040;-51
2023/06/30 12:50:29;;;;;;;3.00;1.08;;;;;;;;;;5078149;28;20132;-52
2023/06/30 12:52:57;;;;;;;3.72;1.27;;;;;;;;;;5077081;28;20037;-51
2023/06/30 12:55:23;;;;;;;1.98;1.17;;;;;;;;;;5077762;28;20079;-51
2023/06/30 12:57:49;;;;;;;3.85;1.30;;;;;;;;;;5076533;28;20116;-51
2023/06/30 13:00:16;;;;;;;3.28;1.70;;;;;;;;;;5077209;28;20546;-51
2023/06/30 13:02:42;;;;;;;2.63;1.08;;;;;;;;;;5076913;28;20033;-51
2023/06/30 13:05:08;;;;;;;1.63;0.95;;;;;;;;;;5077254;28;20044;-51
2023/06/30 13:07:35;;;;;;;1.65;1.05;;;;;;;;;;5092800;27;20151;-51
2023/06/30 13:10:02;;;;;;;1.52;1.02;;;;;;;;;;5078176;28;20040;-51
2023/06/30 13:12:29;;;;;;;3.72;1.58;;;;;;;;;;5077110;28;20048;-51
2023/06/30 13:14:58;;;;;;;4.97;1.30;;;;;;;;;;5077328;28;20071;-52
2023/06/30 13:17:24;;;;;;;3.95;1.88;;;;;;;;;;5077549;28;21188;-51
2023/06/30 13:19:50;;;;;;;1.58;0.90;;;;;;;;;;5077138;28;20044;-51
2023/06/30 13:22:17;;;;;;;4.75;1.45;;;;;;;;;;5077614;28;20516;-51
2023/06/30 13:24:46;;;;;;;6.70;1.30;;;;;;;;;;5077151;28;20147;-51
2023/06/30 13:27:12;;;;;;;3.95;1.58;;;;;;;;;;5077431;28;20042;-51
2023/06/30 13:29:48;;;;;;;6.53;1.25;;;;;;;;;;5076982;28;20036;-52
2023/06/30 13:32:14;;;;;;;3.28;1.00;;;;;;;;;;5077132;28;20629;-51
2023/06/30 13:34:40;;;;;;;3.85;1.10;;;;;;;;;;5076315;28;20041;-51
2023/06/30 13:37:06;;;;;;;7.43;1.58;;;;;;;;;;5076723;28;20047;-51
2023/06/30 13:39:33;;;;;;;5.40;1.52;;;;;;;;;;5076490;28;20044;-51
2023/06/30 13:42:01;;;;;;;5.32;1.48;;;;;;;;;;5092255;27;20040;-52
2023/06/30 13:44:27;;;;;;;2.88;1.10;;;;;;;;;;5076179;28;20175;-51
2023/06/30 13:46:53;;;;;;;2.60;1.10;;;;;;;;;;5077234;27;20221;-51
2023/06/30 13:49:19;;;;;;;3.22;1.20;;;;;;;;;;5068649;28;20546;-51
2023/06/30 13:51:45;;;;;;;3.20;1.02;;;;;;;;;;5077375;28;20045;-51
2023/06/30 13:54:12;;;;;;;2.17;1.23;;;;;;;;;;5076057;28;20073;-51
2023/06/30 13:56:38;;;;;;;3.38;1.10;;;;;;;;;;5077574;28;20625;-51
2023/06/30 13:59:04;;;;;;;3.03;1.45;;;;;;;;;;5076224;28;20037;-51
2023/06/30 14:01:30;;;;;;;6.05;1.40;;;;;;;;;;5069183;28;20135;-51
2023/06/30 14:03:56;;;;;;;3.72;1.85;;;;;;;;;;5076283;28;20136;-51
2023/06/30 14:06:22;;;;;;;4.13;1.40;;;;;;;;;;5077019;28;20079;-51
2023/06/30 14:08:48;;;;;;;2.40;1.10;;;;;;;;;;5076536;28;20051;-51
2023/06/30 14:11:17;;;;;;;4.32;1.58;;;;;;;;;;5078526;28;20532;-52
2023/06/30 14:13:43;;;;;;;4.72;2.13;;;;;;;;;;5079462;28;20044;-51
2023/06/30 14:16:09;;;;;;;3.42;1.30;;;;;;;;;;5079498;28;20124;-51
2023/06/30 14:18:35;;;;;;;4.20;1.88;;;;;;;;;;5078744;28;20129;-54
2023/06/30 14:21:02;;;;;;;3.90;2.15;;;;;;;;;;5071935;28;20111;-51
2023/06/30 14:23:28;;;;;;;5.65;2.17;;;;;;;;;;5079576;28;20045;-52
2023/06/30 14:25:54;;;;;;;3.60;1.92;;;;;;;;;;5079332;28;20060;-51
2023/06/30 14:28:20;;;;;;;4.32;2.22;;;;;;;;;;5080378;28;20492;-52
2023/06/30 14:30:46;;;;;;;4.50;1.75;;;;;;;;;;5080282;28;20508;-51
2023/06/30 14:33:13;;;;;;;7.82;2.10;;;;;;;;;;5080051;28;20512;-51
2023/06/30 14:35:39;;;;;;;5.65;1.50;;;;;;;;;;5079850;28;20036;-51
2023/06/30 14:38:05;;;;;;;2.80;1.42;;;;;;;;;;5079253;28;20037;-51